Overview Statistics Trail Chart Weather Telemetry Raw packets
 

This is the latest recevied weather packets stored in our database for station/object HS1AXC-1. If no packets are shown the sender has not sent any weather packets the latest 10 day(s).

<< 15 16 17 18 19 20 21 >>
Time Temp. Humidity Pressure Rain* Wind** Luminosity Snow
1788434477 35.56° C 61% 1005 hPa - - 0 W/m² -
1788433855 35.56° C 61% 1005 hPa - - 0 W/m² -
1788433254 36.11° C 59% 1005 hPa - - 0 W/m² -
1788432611 35.56° C 61% 1005 hPa - - 0 W/m² -
1788431989 36.11° C 59% 1005 hPa - - 0 W/m² -
1788431367 36.67° C 58% 1005 hPa - - 0 W/m² -
1788430746 36.67° C 56% 1005 hPa - - 0 W/m² -
1788430123 36.11° C 57% 1005 hPa - - 0 W/m² -
1788429501 37.22° C 55% 1004 hPa - - 0 W/m² -
1788428879 37.22° C 55% 1004 hPa - - 0 W/m² -
1788428257 37.22° C 54% 1004 hPa - - 1 W/m² -
1788427635 38.33° C 47% 1004 hPa - - 1 W/m² -
1788427013 38.33° C 47% 1004 hPa - - 0 W/m² -
1788426391 37.78° C 48% 1005 hPa - - 1 W/m² -
1788425769 38.33° C 48% 1005 hPa - - 1 W/m² -
1788425147 38.33° C 48% 1005 hPa - - 1 W/m² -
1788424525 38.33° C 47% 1005 hPa - - 0 W/m² -
1788423902 38.89° C 47% 1005 hPa - - 1 W/m² -
1788423280 38.33° C 47% 1005 hPa - - 1 W/m² -
1788422658 38.89° C 47% 1005 hPa - - 2 W/m² -
1788422036 38.33° C 47% 1006 hPa - - 2 W/m² -
1788421415 37.78° C 48% 1006 hPa - - 1 W/m² -
1788420792 38.33° C 48% 1006 hPa - - 1 W/m² -
1788420170 38.33° C 48% 1006 hPa - - 2 W/m² -
1788419548 38.33° C 48% 1006 hPa - - 1 W/m² -

* Rain since midnight (hover to see other rain measurements)
** Current wind speed in m/s (hover to see current wind gust speed)